createdAt,value
2022-08-12T00:00:31.145Z,11.03
2022-08-12T00:03:13.576Z,10.95
2022-08-12T00:06:05.089Z,10.89
2022-08-12T00:08:50.463Z,10.83
2022-08-12T00:11:33.255Z,10.80
2022-08-12T00:14:16.110Z,10.73
2022-08-12T00:16:59.439Z,10.69
2022-08-12T00:19:43.810Z,10.64
2022-08-12T00:22:26.518Z,10.58
2022-08-12T00:25:15.558Z,10.54
2022-08-12T00:27:58.877Z,10.52
2022-08-12T00:30:41.686Z,10.51
2022-08-12T00:33:26.947Z,10.52
2022-08-12T00:36:35.184Z,10.59
2022-08-12T00:39:19.292Z,10.63
2022-08-12T00:42:03.739Z,10.66
2022-08-12T00:44:30.611Z,10.70
2022-08-12T00:47:01.854Z,10.71
2022-08-12T00:49:31.348Z,10.71
2022-08-12T00:52:09.989Z,10.71
2022-08-12T00:54:44.471Z,10.72
2022-08-12T00:57:13.421Z,10.74
2022-08-12T00:59:49.058Z,10.76
2022-08-12T01:02:24.526Z,10.76
2022-08-12T01:05:12.244Z,10.74
2022-08-12T01:07:57.575Z,10.64
2022-08-12T01:10:43.512Z,10.62
2022-08-12T01:13:19.711Z,10.54
2022-08-12T01:15:51.461Z,10.48
2022-08-12T01:18:22.185Z,10.42
2022-08-12T01:21:04.206Z,10.34
2022-08-12T01:23:50.505Z,10.33
2022-08-12T01:26:21.607Z,10.27
2022-08-12T01:28:51.303Z,10.20
2022-08-12T01:31:19.648Z,10.17
2022-08-12T01:33:59.861Z,10.14
2022-08-12T01:36:28.964Z,10.14
2022-08-12T01:38:59.442Z,10.15
2022-08-12T01:41:31.406Z,10.15
2022-08-12T01:44:01.907Z,10.13
2022-08-12T01:46:44.391Z,10.07
2022-08-12T01:49:27.028Z,10.04
2022-08-12T01:52:21.246Z,10.02
2022-08-12T01:54:51.574Z,10.02
2022-08-12T01:57:59.398Z,10.01
2022-08-12T02:00:47.665Z,10.00
2022-08-12T02:03:31.544Z,9.99
2022-08-12T02:06:25.771Z,9.94
2022-08-12T02:09:14.155Z,9.88
2022-08-12T02:11:53.728Z,9.82
2022-08-12T02:14:52.788Z,9.80
2022-08-12T02:17:55.951Z,9.76
2022-08-12T02:20:35.350Z,9.72
2022-08-12T02:23:19.640Z,9.68
2022-08-12T02:25:47.826Z,9.65
2022-08-12T02:28:15.340Z,9.65
2022-08-12T02:30:42.762Z,9.66
2022-08-12T02:33:10.983Z,9.68
2022-08-12T02:35:39.804Z,9.69
2022-08-12T02:38:11.944Z,9.70
2022-08-12T02:40:44.799Z,9.70
2022-08-12T02:43:24.569Z,9.69
2022-08-12T02:46:00.608Z,9.68
2022-08-12T02:48:34.222Z,9.69
2022-08-12T02:51:09.410Z,9.69
2022-08-12T02:53:39.007Z,9.73
2022-08-12T02:56:07.101Z,9.74
2022-08-12T02:58:36.071Z,9.74
2022-08-12T03:01:10.488Z,9.72
2022-08-12T03:03:39.235Z,9.69
2022-08-12T03:06:09.123Z,9.65
2022-08-12T03:08:43.505Z,9.60
2022-08-12T03:11:23.222Z,9.55
2022-08-12T03:13:58.266Z,9.51
2022-08-12T03:16:28.235Z,9.45
2022-08-12T03:18:56.025Z,9.42
2022-08-12T03:21:52.843Z,9.37
2022-08-12T03:24:17.375Z,9.35
2022-08-12T03:26:48.239Z,9.34
2022-08-12T03:29:16.726Z,9.34
2022-08-12T03:31:44.215Z,9.34
2022-08-12T03:34:12.833Z,9.31
2022-08-12T03:36:42.071Z,9.29
2022-08-12T03:39:19.310Z,9.28
2022-08-12T03:42:17.587Z,9.27
2022-08-12T03:45:17.930Z,9.26
2022-08-12T03:48:18.685Z,9.27
2022-08-12T03:51:03.968Z,9.31
2022-08-12T03:53:47.239Z,9.34
2022-08-12T03:56:30.871Z,9.33
2022-08-12T03:59:15.909Z,9.33
2022-08-12T04:01:42.872Z,9.32
2022-08-12T04:04:10.738Z,9.33
2022-08-12T04:06:45.335Z,9.36
2022-08-12T04:09:14.573Z,9.39
2022-08-12T04:12:00.944Z,9.49
2022-08-12T04:14:28.064Z,9.60
2022-08-12T04:16:57.227Z,9.67
2022-08-12T04:19:26.489Z,9.73
2022-08-12T04:22:02.031Z,9.79
2022-08-12T04:24:36.305Z,9.87
2022-08-12T04:27:08.720Z,9.96
2022-08-12T04:30:21.388Z,10.05
2022-08-12T04:32:25.966Z,10.19
2022-08-12T04:34:53.913Z,10.31
2022-08-12T04:37:20.991Z,10.44
2022-08-12T04:39:48.731Z,10.58
2022-08-12T04:42:16.331Z,10.74
2022-08-12T04:44:44.614Z,10.90
2022-08-12T04:47:14.378Z,11.08
2022-08-12T04:49:44.732Z,11.29
2022-08-12T04:52:12.601Z,11.52
2022-08-12T04:54:39.559Z,11.74
2022-08-12T04:57:09.944Z,11.93
2022-08-12T04:59:46.818Z,12.15
2022-08-12T05:02:21.534Z,12.39
2022-08-12T05:04:50.098Z,12.62
2022-08-12T05:07:17.375Z,12.84
2022-08-12T05:10:00.504Z,13.03
2022-08-12T05:12:36.823Z,13.24
2022-08-12T05:15:16.875Z,13.43
2022-08-12T05:17:52.880Z,13.64
2022-08-12T05:20:22.311Z,13.83
2022-08-12T05:22:56.912Z,14.01
2022-08-12T05:25:24.466Z,14.18
2022-08-12T05:27:55.469Z,14.33
2022-08-12T05:30:28.165Z,14.51
2022-08-12T05:32:59.815Z,14.69
2022-08-12T05:35:28.368Z,14.91
2022-08-12T05:38:15.253Z,15.13
2022-08-12T05:40:42.280Z,15.37
2022-08-12T05:43:09.247Z,15.57
2022-08-12T05:45:37.508Z,15.76
2022-08-12T05:48:07.257Z,15.98
2022-08-12T05:50:36.688Z,16.21
2022-08-12T05:53:04.167Z,16.43
2022-08-12T05:55:31.797Z,16.65
2022-08-12T05:57:59.393Z,16.87
2022-08-12T06:00:26.883Z,17.07
2022-08-12T06:02:57.248Z,17.28
2022-08-12T06:05:24.174Z,17.51
2022-08-12T06:08:01.596Z,17.71
2022-08-12T06:10:33.020Z,17.92
2022-08-12T06:13:02.698Z,18.14
2022-08-12T06:15:30.491Z,18.32
2022-08-12T06:18:14.062Z,18.52
2022-08-12T06:20:46.745Z,18.77
2022-08-12T06:23:15.511Z,19.04
2022-08-12T06:25:43.697Z,19.31
2022-08-12T06:28:17.843Z,19.54
2022-08-12T06:30:57.373Z,19.80
2022-08-12T06:33:55.452Z,20.07
2022-08-12T06:36:23.758Z,20.31
2022-08-12T06:38:51.223Z,20.50
2022-08-12T06:41:34.136Z,20.67
2022-08-12T06:44:05.913Z,20.81
2022-08-12T06:46:37.132Z,21.01
2022-08-12T06:49:04.517Z,21.27
2022-08-12T06:51:32.694Z,21.46
2022-08-12T06:54:00.841Z,21.57
2022-08-12T06:56:59.674Z,21.66
2022-08-12T06:59:15.965Z,21.73
2022-08-12T07:01:49.603Z,21.90
2022-08-12T07:04:36.174Z,22.10
2022-08-12T07:07:05.665Z,22.34
2022-08-12T07:10:01.419Z,22.57
2022-08-12T07:12:20.119Z,22.82
2022-08-12T07:14:51.798Z,23.01
2022-08-12T07:17:18.910Z,23.15
2022-08-12T07:19:48.770Z,23.19
2022-08-12T07:22:17.026Z,23.33
2022-08-12T07:25:04.105Z,23.58
2022-08-12T07:27:31.258Z,23.88
2022-08-12T07:30:04.576Z,24.12
2022-08-12T07:32:32.181Z,24.49
2022-08-12T07:34:58.966Z,24.73
2022-08-12T07:37:25.745Z,24.82
2022-08-12T07:40:00.449Z,24.93
2022-08-12T07:42:29.694Z,25.19
2022-08-12T07:44:56.887Z,25.53
2022-08-12T07:47:24.752Z,25.84
2022-08-12T07:50:04.325Z,26.01
2022-08-12T07:52:35.715Z,26.17
2022-08-12T07:55:04.402Z,26.16
2022-08-12T07:57:32.732Z,26.09
2022-08-12T08:00:06.108Z,26.32
2022-08-12T08:02:37.643Z,26.76
2022-08-12T08:05:05.247Z,26.91
2022-08-12T08:07:32.236Z,27.06
2022-08-12T08:10:00.726Z,27.43
2022-08-12T08:12:44.980Z,27.84
2022-08-12T08:15:12.184Z,28.50
2022-08-12T08:17:39.255Z,29.11
2022-08-12T08:20:10.315Z,29.78
2022-08-12T08:22:42.592Z,30.15
2022-08-12T08:25:34.484Z,30.42
2022-08-12T08:28:01.162Z,30.91
2022-08-12T08:30:29.959Z,31.15
2022-08-12T08:32:57.231Z,31.35
2022-08-12T08:35:26.076Z,31.69
2022-08-12T08:38:32.087Z,32.09
2022-08-12T08:42:16.029Z,32.58
2022-08-12T08:44:06.744Z,33.04
2022-08-12T08:46:38.293Z,33.05
2022-08-12T08:49:06.290Z,33.14
2022-08-12T08:51:33.369Z,33.15
2022-08-12T08:54:00.204Z,33.37
2022-08-12T08:56:29.272Z,33.72
2022-08-12T08:58:57.734Z,33.83
2022-08-12T09:01:26.032Z,33.84
2022-08-12T09:05:10.073Z,33.98
2022-08-12T09:06:53.468Z,34.33
2022-08-12T09:09:21.379Z,34.63
2022-08-12T09:12:11.110Z,34.86
2022-08-12T09:17:42.103Z,34.05
2022-08-12T09:20:15.975Z,33.46
2022-08-12T09:22:49.209Z,33.24
2022-08-12T09:28:05.993Z,32.64
2022-08-12T09:30:42.292Z,32.25
2022-08-12T09:33:19.317Z,31.81
2022-08-12T09:36:04.536Z,31.47
2022-08-12T09:38:35.238Z,31.10
2022-08-12T09:42:09.073Z,30.68
2022-08-12T09:44:05.610Z,30.16
2022-08-12T09:46:34.568Z,29.67
2022-08-12T09:49:04.195Z,29.25
2022-08-12T09:51:43.871Z,28.90
2022-08-12T09:54:33.149Z,28.74
2022-08-12T09:57:03.624Z,28.60
2022-08-12T10:00:15.193Z,28.29
2022-08-12T10:02:44.301Z,28.17
2022-08-12T10:05:20.251Z,28.21
2022-08-12T10:07:47.661Z,28.14
2022-08-12T10:10:23.877Z,28.07
2022-08-12T10:13:34.920Z,27.99
2022-08-12T10:16:00.769Z,27.93
2022-08-12T10:18:32.457Z,27.73
2022-08-12T10:20:59.454Z,27.67
2022-08-12T10:23:40.124Z,27.70
2022-08-12T10:26:38.619Z,27.64
2022-08-12T10:30:03.513Z,27.51
2022-08-12T10:32:20.870Z,27.46
2022-08-12T10:34:53.376Z,27.53
2022-08-12T10:38:34.603Z,27.51
2022-08-12T10:40:18.938Z,27.58
2022-08-12T10:43:02.851Z,27.67
2022-08-12T10:45:31.384Z,27.75
2022-08-12T10:48:19.134Z,27.88
2022-08-12T10:50:56.732Z,28.03
2022-08-12T10:53:45.558Z,28.15
2022-08-12T10:56:15.597Z,28.30
2022-08-12T10:58:45.948Z,28.44
2022-08-12T11:01:50.008Z,28.45
2022-08-12T11:04:20.101Z,28.34
2022-08-12T11:07:10.017Z,28.50
2022-08-12T11:09:59.773Z,28.83
2022-08-12T11:12:56.633Z,28.89
2022-08-12T11:15:32.994Z,28.64
2022-08-12T11:18:18.575Z,28.56
2022-08-12T11:20:48.141Z,28.65
2022-08-12T11:23:25.126Z,28.78
2022-08-12T11:26:05.492Z,29.11
2022-08-12T11:28:36.692Z,29.50
2022-08-12T11:31:12.317Z,29.89
2022-08-12T11:34:06.044Z,30.18
2022-08-12T11:36:30.621Z,30.47
2022-08-12T11:38:58.110Z,30.75
2022-08-12T11:41:31.878Z,30.90
2022-08-12T11:44:30.682Z,30.92
2022-08-12T11:46:50.910Z,31.11
2022-08-12T11:49:30.540Z,31.38
2022-08-12T11:51:58.017Z,31.72
2022-08-12T11:54:25.032Z,32.07
2022-08-12T11:56:52.344Z,32.46
2022-08-12T12:02:17.578Z,32.78
2022-08-12T12:04:46.203Z,32.95
2022-08-12T12:07:33.701Z,32.60
2022-08-12T12:10:11.223Z,32.40
2022-08-12T12:12:38.621Z,32.63
2022-08-12T12:15:09.828Z,32.97
2022-08-12T12:17:39.069Z,33.21
2022-08-12T12:20:09.736Z,33.56
2022-08-12T12:22:38.557Z,33.96
2022-08-12T12:25:12.731Z,34.17
2022-08-12T12:28:04.891Z,34.45
2022-08-12T12:30:33.004Z,34.71
2022-08-12T12:32:59.931Z,34.72
2022-08-12T12:36:06.243Z,34.81
2022-08-12T12:38:15.145Z,35.09
2022-08-12T12:40:44.572Z,34.98
2022-08-12T12:43:13.847Z,34.55
2022-08-12T12:45:45.803Z,34.77
2022-08-12T12:48:15.493Z,35.07
2022-08-12T12:51:12.245Z,35.23
2022-08-12T12:54:08.036Z,35.38
2022-08-12T12:56:34.673Z,35.53
2022-08-12T12:59:03.865Z,35.77
2022-08-12T13:01:38.321Z,35.89
2022-08-12T13:04:12.230Z,35.89
2022-08-12T13:06:42.149Z,36.09
2022-08-12T13:09:13.282Z,36.21
2022-08-12T13:11:42.201Z,36.32
2022-08-12T13:14:28.234Z,36.53
2022-08-12T13:16:57.527Z,36.77
2022-08-12T13:19:37.416Z,36.79
2022-08-12T13:22:23.858Z,36.65
2022-08-12T13:24:56.894Z,36.67
2022-08-12T13:27:35.348Z,36.70
2022-08-12T13:30:11.099Z,36.55
2022-08-12T13:32:42.674Z,36.52
2022-08-12T13:35:19.333Z,36.56
2022-08-12T13:37:59.375Z,36.76
2022-08-12T13:40:32.346Z,36.96
2022-08-12T13:43:01.596Z,36.97
2022-08-12T13:45:30.973Z,36.74
2022-08-12T13:48:03.868Z,36.70
2022-08-12T13:50:36.469Z,36.97
2022-08-12T13:53:23.985Z,37.08
2022-08-12T13:56:01.539Z,36.69
2022-08-12T13:58:32.824Z,36.47
2022-08-12T14:01:05.713Z,36.34
2022-08-12T14:03:50.609Z,36.13
2022-08-12T14:06:19.715Z,35.74
2022-08-12T14:08:49.918Z,35.17
2022-08-12T14:11:19.435Z,34.88
2022-08-12T14:14:03.742Z,34.81
2022-08-12T14:16:48.569Z,34.53
2022-08-12T14:19:22.447Z,33.97
2022-08-12T14:21:59.331Z,33.35
2022-08-12T14:24:31.635Z,32.77
2022-08-12T14:27:01.801Z,32.31
2022-08-12T14:29:56.280Z,31.92
2022-08-12T14:32:18.440Z,31.37
2022-08-12T14:34:49.196Z,30.96
2022-08-12T14:37:57.511Z,30.62
2022-08-12T14:40:04.321Z,30.21
2022-08-12T14:42:31.192Z,29.92
2022-08-12T14:45:01.187Z,29.71
2022-08-12T14:47:34.941Z,29.42
2022-08-12T14:50:58.402Z,29.17
2022-08-12T14:58:31.773Z,28.56
2022-08-12T15:01:14.956Z,28.37
2022-08-12T15:03:53.046Z,28.23
2022-08-12T15:06:43.693Z,28.06
2022-08-12T15:09:15.961Z,27.89
2022-08-12T15:11:55.725Z,27.78
2022-08-12T15:14:30.664Z,27.68
2022-08-12T15:17:00.657Z,27.60
2022-08-12T15:20:33.220Z,27.48
2022-08-12T15:22:37.520Z,27.35
2022-08-12T15:25:07.560Z,27.28
2022-08-12T15:28:03.987Z,27.21
2022-08-12T15:30:31.336Z,27.14
2022-08-12T15:32:59.118Z,27.06
2022-08-12T15:35:31.472Z,27.01
2022-08-12T15:38:12.046Z,26.94
2022-08-12T15:40:48.274Z,26.87
2022-08-12T15:43:51.355Z,26.80
2022-08-12T15:46:06.429Z,26.74
2022-08-12T15:48:34.169Z,26.68
2022-08-12T15:51:02.856Z,26.58
2022-08-12T15:53:46.832Z,26.51
2022-08-12T15:56:29.639Z,26.45
2022-08-12T15:58:59.321Z,26.40
2022-08-12T16:01:34.953Z,26.37
2022-08-12T16:04:05.338Z,26.33
2022-08-12T16:07:00.577Z,26.32
2022-08-12T16:09:31.813Z,26.29
2022-08-12T16:12:12.329Z,26.20
2022-08-12T16:14:41.564Z,26.12
2022-08-12T16:17:14.850Z,26.07
2022-08-12T16:20:03.489Z,26.00
2022-08-12T16:22:29.706Z,25.89
2022-08-12T16:24:57.236Z,25.77
2022-08-12T16:27:25.723Z,25.65
2022-08-12T16:29:57.700Z,25.55
2022-08-12T16:32:31.176Z,25.41
2022-08-12T16:35:00.911Z,25.27
2022-08-12T16:38:05.036Z,25.13
2022-08-12T16:40:18.831Z,25.01
2022-08-12T16:42:53.603Z,24.91
2022-08-12T16:46:04.942Z,24.84
2022-08-12T16:48:34.676Z,24.80
2022-08-12T16:51:08.221Z,24.80
2022-08-12T16:53:43.842Z,24.80
2022-08-12T16:56:15.437Z,24.83
2022-08-12T16:58:43.396Z,24.82
2022-08-12T17:01:14.059Z,24.82
2022-08-12T17:03:52.024Z,24.79
2022-08-12T17:06:27.682Z,24.73
2022-08-12T17:09:08.621Z,24.66
2022-08-12T17:11:49.258Z,24.56
2022-08-12T17:14:23.025Z,24.46
2022-08-12T17:16:52.121Z,24.37
2022-08-12T17:20:12.181Z,24.29
2022-08-12T17:22:09.850Z,24.17
2022-08-12T17:24:43.803Z,24.08
2022-08-12T17:27:16.052Z,24.00
2022-08-12T17:30:00.736Z,23.92
2022-08-12T17:32:31.454Z,23.81
2022-08-12T17:35:16.058Z,23.72
2022-08-12T17:37:44.809Z,23.62
2022-08-12T17:40:20.811Z,23.54
2022-08-12T17:43:02.266Z,23.45
2022-08-12T17:45:31.263Z,23.37
2022-08-12T17:48:05.166Z,23.30
2022-08-12T17:50:38.033Z,23.23
2022-08-12T17:53:10.164Z,23.16
2022-08-12T17:55:47.859Z,23.08
2022-08-12T17:58:35.617Z,23.00
2022-08-12T18:01:11.237Z,22.92
2022-08-12T18:04:06.951Z,22.82
2022-08-12T18:06:28.429Z,22.75
2022-08-12T18:08:58.873Z,22.66
2022-08-12T18:12:03.804Z,22.57
2022-08-12T18:14:30.571Z,22.46
2022-08-12T18:17:00.825Z,22.38
2022-08-12T18:19:34.276Z,22.29
2022-08-12T18:22:21.983Z,22.18
2022-08-12T18:25:03.787Z,22.10
2022-08-12T18:27:44.667Z,22.02
2022-08-12T18:30:20.716Z,21.93
2022-08-12T18:33:03.596Z,21.82
2022-08-12T18:35:47.719Z,21.71
2022-08-12T18:38:22.728Z,21.58
2022-08-12T18:41:09.636Z,21.45
2022-08-12T18:43:58.872Z,21.32
2022-08-12T18:46:32.426Z,21.20
2022-08-12T18:49:17.077Z,21.10
2022-08-12T18:51:55.115Z,20.99
2022-08-12T18:54:26.948Z,20.88
2022-08-12T18:56:57.779Z,20.77
2022-08-12T18:59:59.970Z,20.65
2022-08-12T19:02:21.216Z,20.52
2022-08-12T19:04:53.239Z,20.38
2022-08-12T19:07:24.117Z,20.22
2022-08-12T19:09:58.633Z,20.07
2022-08-12T19:12:42.839Z,19.94
2022-08-12T19:15:25.800Z,19.81
2022-08-12T19:18:00.558Z,19.72
2022-08-12T19:20:30.088Z,19.61
2022-08-12T19:23:02.631Z,19.52
2022-08-12T19:26:00.920Z,19.42
2022-08-12T19:28:30.372Z,19.32
2022-08-12T19:31:44.724Z,19.23
2022-08-12T19:34:47.023Z,19.11
2022-08-12T19:37:16.760Z,19.04
2022-08-12T19:40:09.104Z,18.96
2022-08-12T19:42:33.836Z,18.90
2022-08-12T19:45:05.139Z,18.86
2022-08-12T19:47:39.284Z,18.80
2022-08-12T19:50:11.384Z,18.72
2022-08-12T19:52:40.861Z,18.65
2022-08-12T19:55:11.534Z,18.58
2022-08-12T19:58:02.621Z,18.54
2022-08-12T20:00:32.309Z,18.48
2022-08-12T20:03:04.775Z,18.43
2022-08-12T20:06:07.057Z,18.37
2022-08-12T20:08:32.930Z,18.32
2022-08-12T20:12:12.294Z,18.26
2022-08-12T20:14:00.625Z,18.21
2022-08-12T20:16:53.039Z,18.17
2022-08-12T20:19:24.768Z,18.17
2022-08-12T20:22:14.560Z,18.18
2022-08-12T20:24:42.996Z,18.20
2022-08-12T20:27:28.771Z,18.23
2022-08-12T20:29:57.187Z,18.27
2022-08-12T20:32:29.817Z,18.30
2022-08-12T20:35:13.322Z,18.31
2022-08-12T20:38:06.371Z,18.32
2022-08-12T20:40:38.097Z,18.32
2022-08-12T20:43:06.446Z,18.33
2022-08-12T20:45:44.935Z,18.37
2022-08-12T20:48:18.294Z,18.41
2022-08-12T20:50:53.385Z,18.51
2022-08-12T20:53:32.937Z,18.47
2022-08-12T20:56:30.769Z,18.33
2022-08-12T20:59:01.268Z,18.24
2022-08-12T21:01:46.079Z,18.17
2022-08-12T21:04:47.060Z,18.10
2022-08-12T21:07:23.464Z,18.07
2022-08-12T21:09:52.008Z,18.04
2022-08-12T21:12:27.718Z,17.99
2022-08-12T21:15:17.006Z,17.94
2022-08-12T21:18:15.541Z,17.85
2022-08-12T21:20:52.323Z,17.75
2022-08-12T21:23:22.895Z,17.68
2022-08-12T21:25:54.875Z,17.61
2022-08-12T21:28:22.493Z,17.56
2022-08-12T21:32:35.119Z,17.51
2022-08-12T21:33:58.483Z,17.45
2022-08-12T21:39:37.559Z,17.29
2022-08-12T21:42:07.097Z,17.19
2022-08-12T21:45:48.282Z,17.13
2022-08-12T21:47:24.221Z,17.04
2022-08-12T21:50:04.253Z,17.00
2022-08-12T21:52:37.009Z,16.95
2022-08-12T21:55:08.067Z,16.90
2022-08-12T21:57:51.249Z,16.84
2022-08-12T22:00:33.073Z,16.80
2022-08-12T22:03:17.867Z,16.74
2022-08-12T22:06:31.807Z,16.67
2022-08-12T22:09:11.260Z,16.58
2022-08-12T22:11:49.294Z,16.58
2022-08-12T22:14:24.282Z,16.57
2022-08-12T22:16:54.904Z,16.58
2022-08-12T22:19:23.381Z,16.57
2022-08-12T22:21:53.739Z,16.53
2022-08-12T22:24:26.536Z,16.52
2022-08-12T22:26:59.468Z,16.47
2022-08-12T22:29:56.809Z,16.44
2022-08-12T22:32:26.304Z,16.41
2022-08-12T22:35:23.087Z,16.38
2022-08-12T22:37:56.046Z,16.34
2022-08-12T22:40:23.845Z,16.29
2022-08-12T22:43:06.345Z,16.25
2022-08-12T22:45:56.542Z,16.20
2022-08-12T22:48:26.560Z,16.16
2022-08-12T22:50:59.197Z,16.12
2022-08-12T22:53:36.238Z,16.11
2022-08-12T22:56:07.031Z,16.13
2022-08-12T22:58:41.256Z,16.16
2022-08-12T23:01:11.362Z,16.17
2022-08-12T23:03:50.929Z,16.18
2022-08-12T23:06:24.051Z,16.20
2022-08-12T23:08:54.599Z,16.23
2022-08-12T23:11:23.887Z,16.25
2022-08-12T23:13:57.178Z,16.26
2022-08-12T23:16:31.109Z,16.27
2022-08-12T23:19:09.755Z,16.30
2022-08-12T23:22:05.438Z,16.31
2022-08-12T23:24:39.095Z,16.31
2022-08-12T23:27:23.636Z,16.27
2022-08-12T23:30:17.496Z,16.22
2022-08-12T23:32:38.853Z,16.18
2022-08-12T23:35:07.212Z,16.16
2022-08-12T23:37:47.108Z,16.16
2022-08-12T23:40:22.078Z,16.17
2022-08-12T23:42:50.074Z,16.19
2022-08-12T23:45:20.559Z,16.22
2022-08-12T23:48:00.449Z,16.24
2022-08-12T23:50:33.466Z,16.24
2022-08-12T23:53:17.040Z,16.25
2022-08-12T23:55:49.915Z,16.26
2022-08-12T23:58:26.016Z,16.25
